Time;durP1;ratioP1;P1;durP2;ratioP2;P2;SDS_P1;SDS_P2;PMS_P1;PMS_P2;Temp;Humidity;BMP_temperature;BMP_pressure;BME280_temperature;BME280_humidity;BME280_pressure;Samples;Min_cycle;Max_cycle;Signal;HPM_P1;HPM_P2
2023/11/24 00:00:12;;;;;;;15.13;2.95;;;24.60;41.70;;;;;;5039720;28;20632;-59
2023/11/24 00:02:38;;;;;;;20.15;2.90;;;24.30;42.30;;;;;;5036968;28;20079;-61
2023/11/24 00:05:07;;;;;;;23.67;5.28;;;24.20;42.90;;;;;;5037804;28;20028;-60
2023/11/24 00:07:39;;;;;;;13.48;2.75;;;24.10;43.10;;;;;;5037183;28;20414;-62
2023/11/24 00:10:06;;;;;;;19.13;4.28;;;24.10;43.40;;;;;;5036831;28;20376;-61
2023/11/24 00:12:33;;;;;;;17.05;3.53;;;24.10;43.40;;;;;;5034755;28;20035;-60
2023/11/24 00:15:03;;;;;;;12.68;3.15;;;23.90;43.10;;;;;;5037394;28;20150;-62
2023/11/24 00:17:30;;;;;;;18.48;2.97;;;23.80;42.30;;;;;;5036298;28;20029;-62
2023/11/24 00:19:56;;;;;;;11.35;2.65;;;23.70;42.40;;;;;;5037449;28;20037;-61
2023/11/24 00:22:23;;;;;;;16.55;2.88;;;23.60;42.90;;;;;;5034336;28;20101;-60
2023/11/24 00:24:51;;;;;;;19.30;3.03;;;23.60;43.40;;;;;;5036036;28;20410;-62
2023/11/24 00:27:20;;;;;;;22.77;2.72;;;23.50;43.40;;;;;;5036332;28;20052;-62
2023/11/24 00:29:49;;;;;;;21.63;3.67;;;23.40;43.40;;;;;;5035887;28;20079;-60
2023/11/24 00:32:16;;;;;;;20.10;2.88;;;23.30;43.20;;;;;;5034516;28;20096;-62
2023/11/24 00:34:42;;;;;;;17.25;3.17;;;23.30;43.30;;;;;;5035997;28;20032;-59
2023/11/24 00:37:09;;;;;;;24.60;3.25;;;23.20;43.40;;;;;;5035158;28;20123;-60
2023/11/24 00:39:39;;;;;;;16.45;3.05;;;23.10;43.50;;;;;;5035304;28;20488;-58
2023/11/24 00:42:07;;;;;;;26.52;3.55;;;23.00;44.00;;;;;;5037432;28;20062;-63
2023/11/24 00:44:34;;;;;;;19.02;2.83;;;22.90;44.40;;;;;;5034567;28;20035;-63
2023/11/24 00:47:00;;;;;;;19.13;3.63;;;22.90;44.80;;;;;;5034460;28;20424;-56
2023/11/24 00:49:27;;;;;;;20.75;2.75;;;22.80;45.20;;;;;;5036002;28;20548;-61
2023/11/24 00:51:53;;;;;;;27.48;3.80;;;22.70;45.70;;;;;;5034696;28;20461;-63
2023/11/24 00:54:20;;;;;;;15.88;3.22;;;22.70;46.10;;;;;;5034592;28;20040;-62
2023/11/24 00:56:47;;;;;;;23.02;3.10;;;22.60;46.40;;;;;;5034659;28;20036;-63
2023/11/24 00:59:13;;;;;;;17.83;2.53;;;22.50;46.80;;;;;;5034549;28;20045;-64
2023/11/24 01:01:40;;;;;;;23.00;2.88;;;22.50;47.70;;;;;;5032533;28;20057;-64
2023/11/24 01:04:07;;;;;;;25.35;3.53;;;22.40;48.00;;;;;;5035180;28;20033;-63
2023/11/24 01:06:33;;;;;;;27.20;2.92;;;22.30;48.60;;;;;;5033464;28;20045;-61
2023/11/24 01:09:00;;;;;;;21.90;3.03;;;22.30;49.10;;;;;;5035461;28;20406;-63
2023/11/24 01:11:27;;;;;;;9.52;2.90;;;22.20;49.50;;;;;;5036148;28;20554;-63
2023/11/24 01:13:54;;;;;;;21.92;3.05;;;22.20;50.10;;;;;;5033374;28;20039;-64
2023/11/24 01:16:21;;;;;;;16.95;2.72;;;22.10;50.60;;;;;;5034816;28;20495;-62
2023/11/24 01:18:49;;;;;;;27.63;3.30;;;22.10;51.30;;;;;;5036138;28;20104;-62
2023/11/24 01:21:17;;;;;;;20.80;2.85;;;22.00;52.10;;;;;;5035617;28;20057;-63
2023/11/24 01:23:44;;;;;;;20.02;3.00;;;21.90;52.80;;;;;;5033292;28;20084;-64
2023/11/24 01:26:15;;;;;;;16.88;3.10;;;21.90;53.10;;;;;;5034041;28;20073;-64
2023/11/24 01:28:43;;;;;;;19.10;3.13;;;21.80;53.40;;;;;;5035403;28;20353;-63
2023/11/24 01:31:10;;;;;;;20.67;3.22;;;21.70;53.90;;;;;;5034411;28;20070;-64
2023/11/24 01:33:37;;;;;;;15.32;3.55;;;21.70;54.50;;;;;;5037359;28;20400;-65
2023/11/24 01:36:04;;;;;;;22.48;3.85;;;21.60;54.50;;;;;;5035383;28;20046;-64
2023/11/24 01:38:30;;;;;;;27.45;4.53;;;21.60;54.30;;;;;;5032859;28;20033;-62
2023/11/24 01:40:57;;;;;;;21.67;3.83;;;21.50;54.50;;;;;;5033408;28;20144;-64
2023/11/24 01:43:24;;;;;;;17.65;4.00;;;21.40;55.00;;;;;;5032598;28;20045;-64
2023/11/24 01:45:51;;;;;;;12.18;3.55;;;21.40;55.70;;;;;;5034931;28;20117;-63
2023/11/24 01:48:19;;;;;;;28.75;4.30;;;21.30;56.20;;;;;;5035221;28;20045;-59
2023/11/24 01:50:46;;;;;;;28.38;3.60;;;21.20;57.20;;;;;;5035358;28;20506;-62
2023/11/24 01:53:13;;;;;;;18.02;4.40;;;21.20;57.60;;;;;;5035917;28;20053;-64
2023/11/24 01:55:41;;;;;;;19.13;3.85;;;21.10;57.90;;;;;;5031962;28;20043;-63
2023/11/24 01:58:08;;;;;;;25.35;4.53;;;21.10;58.20;;;;;;5016623;28;20042;-62
2023/11/24 02:00:36;;;;;;;19.75;4.18;;;21.10;58.50;;;;;;5031848;28;20055;-64
2023/11/24 02:03:02;;;;;;;20.25;5.95;;;21.10;58.70;;;;;;5033697;28;20520;-64
2023/11/24 02:05:32;;;;;;;29.70;4.60;;;21.00;59.60;;;;;;5034850;28;20043;-63
2023/11/24 02:07:59;;;;;;;39.58;5.60;;;20.90;59.60;;;;;;5032033;28;20411;-62
2023/11/24 02:10:26;;;;;;;30.55;5.50;;;20.80;60.40;;;;;;5031694;28;20074;-64
2023/11/24 02:12:52;;;;;;;39.95;8.43;;;20.80;61.00;;;;;;5032694;28;20059;-64
2023/11/24 02:15:19;;;;;;;32.75;8.60;;;20.70;61.90;;;;;;5031970;28;20462;-63
2023/11/24 02:17:45;;;;;;;39.58;6.43;;;20.60;62.50;;;;;;5035256;28;20066;-63
2023/11/24 02:20:13;;;;;;;28.20;5.72;;;20.60;63.30;;;;;;5032662;28;20541;-65
2023/11/24 02:22:43;;;;;;;21.02;5.30;;;20.60;64.10;;;;;;5032860;28;20048;-65
2023/11/24 02:25:11;;;;;;;19.63;3.95;;;20.50;65.50;;;;;;5034819;28;20054;-65
2023/11/24 02:27:37;;;;;;;33.30;4.05;;;20.50;66.20;;;;;;5034278;28;20508;-61
2023/11/24 02:30:05;;;;;;;29.52;4.07;;;20.50;66.90;;;;;;5031853;28;20584;-63
2023/11/24 02:32:33;;;;;;;22.02;4.75;;;20.40;67.50;;;;;;5030714;28;20420;-62
2023/11/24 02:35:00;;;;;;;23.42;4.60;;;20.30;67.90;;;;;;5032805;28;20059;-64
2023/11/24 02:37:27;;;;;;;28.52;4.82;;;20.30;68.40;;;;;;5033046;28;20085;-65
2023/11/24 02:39:53;;;;;;;27.90;5.60;;;20.30;68.90;;;;;;5029947;28;20100;-64
2023/11/24 02:42:20;;;;;;;37.80;7.07;;;20.10;69.50;;;;;;5033458;28;20060;-59
2023/11/24 02:44:46;;;;;;;193.82;13.27;;;20.00;70.70;;;;;;5034117;28;20203;-62
2023/11/24 02:47:12;;;;;;;106.38;8.18;;;20.00;71.20;;;;;;5032001;28;20038;-62
2023/11/24 02:49:39;;;;;;;35.75;5.82;;;20.00;72.50;;;;;;5032361;28;20054;-61
2023/11/24 02:52:07;;;;;;;30.10;6.55;;;19.90;72.80;;;;;;5032356;28;20051;-63
2023/11/24 02:54:33;;;;;;;26.17;7.18;;;19.90;74.10;;;;;;5030768;28;20104;-63
2023/11/24 02:57:00;;;;;;;21.60;5.30;;;19.90;74.80;;;;;;5031341;28;20518;-63
2023/11/24 02:59:27;;;;;;;20.85;4.80;;;19.90;75.60;;;;;;5030974;28;20139;-59
2023/11/24 03:01:53;;;;;;;27.48;4.95;;;19.80;76.40;;;;;;5035278;28;20058;-59
2023/11/24 03:04:20;;;;;;;42.92;6.82;;;19.80;77.40;;;;;;5031049;28;20048;-60
2023/11/24 03:06:47;;;;;;;21.98;9.30;;;19.70;78.20;;;;;;5034284;28;20401;-62
2023/11/24 03:09:16;;;;;;;32.85;8.07;;;19.70;79.00;;;;;;5034348;28;20044;-62
2023/11/24 03:11:42;;;;;;;256.55;19.15;;;19.70;79.50;;;;;;5031244;28;20049;-60
2023/11/24 03:14:09;;;;;;;29.05;6.93;;;19.70;79.90;;;;;;5030681;28;20076;-68
2023/11/24 03:16:35;;;;;;;44.83;7.30;;;19.60;80.40;;;;;;5029841;28;20404;-63
2023/11/24 03:19:02;;;;;;;25.35;7.28;;;19.60;81.10;;;;;;5035631;28;20404;-60
2023/11/24 03:21:28;;;;;;;49.42;7.22;;;19.50;81.00;;;;;;5032400;28;20063;-60
2023/11/24 03:23:55;;;;;;;29.65;7.20;;;19.50;81.40;;;;;;5033452;28;20059;-61
2023/11/24 03:26:21;;;;;;;38.50;7.25;;;19.40;81.90;;;;;;5035150;28;20036;-59
2023/11/24 03:28:48;;;;;;;25.15;7.00;;;19.40;82.40;;;;;;5037621;28;20056;-61
2023/11/24 03:31:14;;;;;;;30.20;7.82;;;19.30;82.80;;;;;;5036890;28;20151;-58
2023/11/24 03:33:41;;;;;;;33.22;7.68;;;19.30;83.30;;;;;;5036676;28;20043;-61
2023/11/24 03:36:07;;;;;;;28.42;7.85;;;19.20;84.00;;;;;;5036839;28;20102;-60
2023/11/24 03:38:34;;;;;;;49.58;7.97;;;19.20;84.60;;;;;;5035587;28;20512;-64
2023/11/24 03:41:01;;;;;;;40.58;8.05;;;19.10;85.70;;;;;;5036415;28;20451;-61
2023/11/24 03:43:28;;;;;;;31.90;7.80;;;19.00;86.30;;;;;;5036737;28;20043;-63
2023/11/24 03:45:54;;;;;;;32.72;11.85;;;19.00;87.00;;;;;;5034857;28;20047;-62
2023/11/24 03:48:21;;;;;;;34.95;11.63;;;18.90;87.40;;;;;;5035963;28;20036;-58
2023/11/24 03:50:53;;;;;;;47.15;12.85;;;18.80;89.00;;;;;;5036006;28;20065;-60
2023/11/24 03:53:20;;;;;;;38.80;10.90;;;18.70;89.10;;;;;;5033679;28;20502;-66
2023/11/24 03:55:47;;;;;;;31.98;11.07;;;18.70;90.00;;;;;;5048713;28;20051;-64
2023/11/24 03:58:14;;;;;;;39.30;12.07;;;18.60;90.40;;;;;;5032969;28;20049;-62
2023/11/24 04:00:41;;;;;;;35.85;12.00;;;18.50;90.70;;;;;;5035299;28;20063;-61
2023/11/24 04:03:08;;;;;;;40.63;11.93;;;18.50;91.00;;;;;;5036645;28;20050;-62
2023/11/24 04:05:34;;;;;;;34.60;11.80;;;18.40;91.50;;;;;;5036519;28;20049;-63
2023/11/24 04:08:01;;;;;;;35.60;12.57;;;18.30;91.80;;;;;;5035736;28;20142;-63
2023/11/24 04:10:27;;;;;;;41.80;11.50;;;18.20;92.30;;;;;;5035467;28;20056;-62
2023/11/24 04:12:54;;;;;;;36.17;11.20;;;18.20;92.70;;;;;;5035009;28;20046;-60
2023/11/24 04:15:20;;;;;;;35.75;10.55;;;18.10;93.00;;;;;;5034486;28;20053;-61
2023/11/24 04:17:47;;;;;;;39.08;10.45;;;18.00;93.60;;;;;;5035760;28;20431;-62
2023/11/24 04:20:14;;;;;;;39.22;11.85;;;18.00;94.00;;;;;;5036942;28;20088;-62
2023/11/24 04:22:41;;;;;;;43.63;19.73;;;18.00;94.40;;;;;;5035298;28;20622;-61
2023/11/24 04:25:10;;;;;;;38.65;14.90;;;17.90;94.50;;;;;;5035063;28;20457;-61
2023/11/24 04:27:38;;;;;;;41.40;12.85;;;17.80;95.20;;;;;;5035682;28;20579;-63
2023/11/24 04:30:06;;;;;;;49.97;16.08;;;17.80;95.70;;;;;;5033829;28;20057;-62
2023/11/24 04:32:33;;;;;;;42.83;16.50;;;17.80;95.70;;;;;;5034405;28;20111;-63
2023/11/24 04:35:00;;;;;;;48.78;15.90;;;17.60;96.20;;;;;;5035119;28;20046;-62
2023/11/24 04:37:26;;;;;;;41.58;17.27;;;17.60;96.50;;;;;;5034395;28;20127;-63
2023/11/24 04:39:53;;;;;;;46.42;14.82;;;17.70;96.60;;;;;;5033766;28;20468;-62
2023/11/24 04:42:20;;;;;;;47.33;14.50;;;17.60;96.90;;;;;;5035567;28;20056;-63
2023/11/24 04:44:47;;;;;;;43.95;17.27;;;17.60;97.20;;;;;;5036548;28;20086;-63
2023/11/24 04:47:13;;;;;;;46.42;12.75;;;17.60;97.40;;;;;;5033457;28;20056;-62
2023/11/24 04:49:40;;;;;;;42.53;13.27;;;17.60;97.10;;;;;;5035664;28;20147;-63
2023/11/24 04:52:06;;;;;;;44.20;13.23;;;17.50;97.20;;;;;;5035376;28;20542;-62
2023/11/24 04:54:33;;;;;;;45.72;12.10;;;17.40;96.50;;;;;;5034909;28;20058;-63
2023/11/24 04:57:00;;;;;;;44.65;12.52;;;17.30;96.70;;;;;;5036597;28;20058;-63
2023/11/24 04:59:27;;;;;;;37.70;12.02;;;17.30;96.70;;;;;;5033676;28;20120;-64
2023/11/24 05:01:54;;;;;;;43.78;12.88;;;17.30;96.60;;;;;;5033673;28;20120;-62
2023/11/24 05:04:20;;;;;;;33.47;13.27;;;17.10;96.90;;;;;;5035297;28;20084;-65
2023/11/24 05:06:47;;;;;;;47.78;12.43;;;17.20;97.00;;;;;;5031991;28;20148;-63
2023/11/24 05:09:14;;;;;;;39.67;12.35;;;17.10;97.10;;;;;;5036205;28;20049;-62
2023/11/24 05:11:40;;;;;;;48.63;13.52;;;17.10;97.20;;;;;;5033860;28;20607;-61
2023/11/24 05:14:07;;;;;;;40.00;13.35;;;17.10;97.40;;;;;;5033433;28;20137;-61
2023/11/24 05:16:34;;;;;;;42.78;13.68;;;17.10;97.50;;;;;;5034334;28;20100;-61
2023/11/24 05:19:00;;;;;;;46.10;13.70;;;17.00;97.50;;;;;;5033671;28;20071;-61
2023/11/24 05:21:27;;;;;;;46.72;14.55;;;17.00;97.60;;;;;;5034994;28;20088;-65
2023/11/24 05:23:53;;;;;;;41.88;14.75;;;16.90;97.80;;;;;;5033745;28;20058;-63
2023/11/24 05:26:23;;;;;;;40.35;14.88;;;16.90;98.00;;;;;;5032926;28;20052;-63
2023/11/24 05:28:49;;;;;;;48.83;16.70;;;16.90;98.20;;;;;;5035536;28;20116;-62
2023/11/24 05:31:16;;;;;;;49.53;15.75;;;16.80;98.20;;;;;;5036099;28;20140;-61
2023/11/24 05:33:42;;;;;;;47.70;15.88;;;16.80;98.40;;;;;;5034724;28;20053;-62
2023/11/24 05:36:09;;;;;;;38.42;16.58;;;16.70;98.60;;;;;;5034337;28;20097;-64
2023/11/24 05:38:39;;;;;;;56.63;17.33;;;16.60;98.80;;;;;;5035524;28;20065;-65
2023/11/24 05:41:06;;;;;;;50.55;17.15;;;16.60;99.10;;;;;;5033687;28;20112;-63
2023/11/24 05:43:34;;;;;;;53.72;17.70;;;16.50;99.50;;;;;;5033327;28;20078;-62
2023/11/24 05:46:00;;;;;;;55.58;18.13;;;16.50;99.80;;;;;;5033806;28;20076;-65
2023/11/24 05:48:28;;;;;;;51.63;19.00;;;16.40;99.80;;;;;;5031566;28;20072;-65
2023/11/24 05:50:56;;;;;;;53.80;18.23;;;16.40;99.90;;;;;;5033443;28;20053;-64
2023/11/24 05:53:22;;;;;;;53.80;18.63;;;16.30;99.90;;;;;;5037801;28;20065;-64
2023/11/24 05:55:49;;;;;;;53.58;19.10;;;16.30;99.90;;;;;;5033116;28;20061;-64
2023/11/24 05:58:17;;;;;;;67.63;19.80;;;16.30;99.90;;;;;;5031838;28;20408;-63
2023/11/24 06:00:43;;;;;;;59.85;20.98;;;16.30;99.90;;;;;;5032217;28;20067;-64
2023/11/24 06:03:12;;;;;;;61.88;21.63;;;16.20;99.90;;;;;;5033075;28;20045;-64
2023/11/24 06:05:39;;;;;;;59.65;20.48;;;16.10;99.90;;;;;;5034015;28;20042;-63
2023/11/24 06:08:05;;;;;;;72.97;22.77;;;16.10;99.90;;;;;;5035936;28;20350;-64
2023/11/24 06:10:32;;;;;;;62.38;21.75;;;16.00;99.90;;;;;;5034329;28;20077;-64
2023/11/24 06:12:59;;;;;;;60.70;24.23;;;16.00;99.90;;;;;;5031526;28;20151;-64
2023/11/24 06:15:26;;;;;;;70.03;26.15;;;15.80;99.90;;;;;;5033731;28;20145;-63
2023/11/24 06:17:53;;;;;;;60.67;22.13;;;15.90;99.90;;;;;;5031202;28;20093;-63
2023/11/24 06:20:19;;;;;;;56.30;20.02;;;15.90;99.90;;;;;;5033150;28;20071;-64
2023/11/24 06:22:46;;;;;;;51.13;18.77;;;15.80;99.90;;;;;;5034861;28;20050;-64
2023/11/24 06:25:13;;;;;;;53.17;19.40;;;15.80;99.90;;;;;;5033741;28;20499;-63
2023/11/24 06:27:40;;;;;;;48.03;17.00;;;15.80;99.90;;;;;;5032106;28;20078;-64
2023/11/24 06:30:06;;;;;;;50.05;18.38;;;15.70;99.90;;;;;;5034284;28;20541;-63
2023/11/24 06:32:36;;;;;;;36.83;16.48;;;15.70;99.90;;;;;;5033770;28;20092;-63
2023/11/24 06:35:06;;;;;;;47.35;16.60;;;15.70;99.90;;;;;;5032782;28;20523;-63
2023/11/24 06:37:33;;;;;;;43.83;16.42;;;15.70;99.90;;;;;;5032249;28;20060;-63
2023/11/24 06:40:02;;;;;;;36.97;15.25;;;15.70;99.90;;;;;;5034316;28;20047;-64
2023/11/24 06:42:30;;;;;;;32.20;15.13;;;15.70;99.90;;;;;;5032592;28;20073;-64
2023/11/24 06:44:57;;;;;;;30.92;15.00;;;15.60;99.90;;;;;;5031764;28;20075;-64
2023/11/24 06:47:24;;;;;;;40.58;15.80;;;15.60;99.90;;;;;;5031943;28;20510;-64
2023/11/24 06:49:50;;;;;;;32.78;14.13;;;15.60;99.90;;;;;;5031915;28;20449;-63
2023/11/24 06:52:17;;;;;;;35.33;14.57;;;15.40;99.90;;;;;;5031425;28;20137;-63
2023/11/24 06:54:44;;;;;;;42.13;16.08;;;15.50;99.90;;;;;;5033330;28;20539;-64
2023/11/24 06:57:11;;;;;;;40.45;15.70;;;15.50;99.90;;;;;;5032387;28;20057;-61
2023/11/24 06:59:37;;;;;;;36.85;15.63;;;15.50;99.90;;;;;;5033150;28;20102;-62
2023/11/24 07:02:04;;;;;;;43.97;15.82;;;15.40;99.90;;;;;;5037751;28;20064;-61
2023/11/24 07:04:31;;;;;;;36.38;13.57;;;15.40;99.90;;;;;;5036687;28;20113;-63
2023/11/24 07:06:58;;;;;;;34.50;13.57;;;15.40;99.90;;;;;;5034808;28;20443;-62
2023/11/24 07:09:24;;;;;;;37.78;13.13;;;15.40;99.90;;;;;;5036687;28;20061;-62
2023/11/24 07:11:51;;;;;;;34.30;11.48;;;15.50;99.90;;;;;;5036102;28;20060;-61
2023/11/24 07:14:17;;;;;;;24.40;8.52;;;15.40;99.90;;;;;;5034877;28;20052;-61
2023/11/24 07:16:44;;;;;;;23.35;9.20;;;15.40;99.90;;;;;;5036300;28;20053;-63
2023/11/24 07:19:10;;;;;;;19.02;7.85;;;15.30;99.90;;;;;;5038284;28;20074;-63
2023/11/24 07:21:38;;;;;;;18.52;8.35;;;15.20;99.90;;;;;;5037984;28;20070;-64
2023/11/24 07:24:05;;;;;;;20.17;7.60;;;15.20;99.90;;;;;;5035316;28;20068;-63
2023/11/24 07:26:32;;;;;;;20.33;7.43;;;15.20;99.90;;;;;;5034702;28;20409;-61
2023/11/24 07:28:58;;;;;;;22.00;7.40;;;15.10;99.90;;;;;;5036445;28;20450;-61
2023/11/24 07:31:25;;;;;;;22.48;7.35;;;15.20;99.90;;;;;;5036524;28;20098;-62
2023/11/24 07:33:52;;;;;;;13.93;6.72;;;15.20;99.90;;;;;;5037516;28;20053;-62
2023/11/24 07:36:21;;;;;;;18.73;6.88;;;15.10;99.90;;;;;;5036744;28;20052;-63
2023/11/24 07:38:48;;;;;;;21.63;6.72;;;15.00;99.90;;;;;;5036638;28;20054;-62
2023/11/24 07:41:16;;;;;;;19.45;6.50;;;15.00;99.90;;;;;;5037520;28;20150;-65
2023/11/24 07:43:43;;;;;;;17.45;6.88;;;15.00;99.90;;;;;;5036585;28;20099;-62
2023/11/24 07:46:11;;;;;;;16.80;6.53;;;15.00;99.90;;;;;;5035605;28;20123;-64
2023/11/24 07:48:37;;;;;;;16.25;6.10;;;15.00;99.90;;;;;;5035679;28;20069;-63
2023/11/24 07:51:05;;;;;;;20.40;6.38;;;14.90;99.90;;;;;;5036623;28;20450;-63
2023/11/24 07:53:33;;;;;;;10.85;6.60;;;14.80;99.90;;;;;;5036681;28;20086;-62
2023/11/24 07:56:00;;;;;;;17.98;6.28;;;14.80;99.90;;;;;;5037094;28;20514;-63
2023/11/24 07:58:28;;;;;;;19.83;7.25;;;14.80;99.90;;;;;;5033908;28;20110;-63
2023/11/24 08:00:55;;;;;;;18.30;6.80;;;14.80;99.90;;;;;;5037505;28;20457;-61
2023/11/24 08:03:24;;;;;;;22.35;7.93;;;14.80;99.90;;;;;;5036018;28;20046;-60
2023/11/24 08:05:52;;;;;;;20.75;7.03;;;14.80;99.90;;;;;;5036724;28;20119;-61
2023/11/24 08:08:18;;;;;;;25.15;7.75;;;14.80;99.90;;;;;;5035561;28;20051;-62
2023/11/24 08:10:45;;;;;;;20.50;7.53;;;14.70;99.90;;;;;;5036029;28;20057;-64
2023/11/24 08:13:12;;;;;;;17.75;7.03;;;14.70;99.90;;;;;;5032717;28;20059;-62
2023/11/24 08:15:38;;;;;;;17.92;7.30;;;14.60;99.90;;;;;;5033451;28;20059;-63
2023/11/24 08:18:04;;;;;;;17.33;7.85;;;14.50;99.90;;;;;;5034565;28;20080;-62
2023/11/24 08:20:31;;;;;;;18.58;6.90;;;14.60;99.90;;;;;;5037839;28;20132;-62
2023/11/24 08:22:58;;;;;;;19.90;8.13;;;14.60;99.90;;;;;;5032226;28;20049;-63
2023/11/24 08:25:24;;;;;;;19.20;7.45;;;14.50;99.90;;;;;;5035722;28;20065;-64
2023/11/24 08:27:51;;;;;;;18.70;6.63;;;14.50;99.90;;;;;;5035710;28;20057;-63
2023/11/24 08:30:18;;;;;;;17.45;7.60;;;14.50;99.90;;;;;;5035187;28;20144;-61
2023/11/24 08:32:46;;;;;;;19.13;7.82;;;14.40;99.90;;;;;;5034488;28;20098;-63
2023/11/24 08:35:14;;;;;;;19.65;7.60;;;14.40;99.90;;;;;;5036844;28;20068;-63
2023/11/24 08:37:41;;;;;;;14.23;6.18;;;14.40;99.90;;;;;;5036177;28;20193;-59
2023/11/24 08:40:11;;;;;;;17.80;6.55;;;14.30;99.90;;;;;;5036801;28;20444;-59
2023/11/24 08:42:38;;;;;;;16.48;6.53;;;14.30;99.90;;;;;;5035844;28;20091;-63
2023/11/24 08:45:06;;;;;;;19.38;7.32;;;14.40;99.90;;;;;;5037980;28;20068;-61
2023/11/24 08:47:32;;;;;;;18.65;6.70;;;14.40;99.90;;;;;;5035520;28;20124;-62
2023/11/24 08:49:59;;;;;;;18.52;5.57;;;14.30;99.90;;;;;;5039862;28;20480;-62
2023/11/24 08:52:26;;;;;;;20.75;5.72;;;14.30;99.90;;;;;;5038220;28;20073;-57
2023/11/24 08:54:52;;;;;;;21.13;5.78;;;14.40;99.90;;;;;;5036180;28;20509;-62
2023/11/24 08:57:19;;;;;;;17.33;5.88;;;14.30;99.90;;;;;;5033689;28;20056;-60
2023/11/24 08:59:45;;;;;;;23.60;5.82;;;14.30;99.90;;;;;;5034846;28;20422;-63
2023/11/24 09:02:12;;;;;;;24.17;6.00;;;14.30;99.90;;;;;;5034418;28;20535;-62
2023/11/24 09:04:38;;;;;;;21.90;7.38;;;14.30;99.90;;;;;;5034226;28;20060;-62
2023/11/24 09:07:05;;;;;;;22.27;8.30;;;14.30;99.90;;;;;;5036985;28;20050;-62
2023/11/24 09:09:33;;;;;;;24.52;8.25;;;14.30;99.90;;;;;;5034597;28;20056;-60
2023/11/24 09:12:00;;;;;;;24.58;8.60;;;14.30;99.90;;;;;;5034438;28;20101;-61
2023/11/24 09:14:27;;;;;;;15.90;7.20;;;14.30;99.90;;;;;;5034970;28;20117;-61
2023/11/24 09:16:54;;;;;;;18.23;7.05;;;14.20;99.90;;;;;;5033984;28;20413;-61
2023/11/24 09:19:20;;;;;;;22.48;7.68;;;14.10;99.90;;;;;;5036207;28;20089;-63
2023/11/24 09:21:48;;;;;;;21.73;6.75;;;14.10;99.90;;;;;;5033722;28;20120;-62
2023/11/24 09:24:15;;;;;;;18.70;7.03;;;14.00;99.90;;;;;;5032700;28;20069;-59
2023/11/24 09:26:44;;;;;;;19.55;7.80;;;13.90;99.90;;;;;;5032512;28;20060;-61
2023/11/24 09:29:11;;;;;;;26.75;7.20;;;13.90;99.90;;;;;;5031676;28;20104;-62
2023/11/24 09:31:38;;;;;;;16.75;6.75;;;14.00;99.90;;;;;;5030925;28;20528;-63
2023/11/24 09:34:04;;;;;;;14.77;6.95;;;14.00;99.90;;;;;;5032599;28;20063;-63
2023/11/24 09:36:31;;;;;;;20.85;7.15;;;14.00;99.90;;;;;;5035736;28;20088;-63
2023/11/24 09:38:57;;;;;;;17.48;7.45;;;13.90;99.90;;;;;;5036400;28;20072;-61
2023/11/24 09:41:24;;;;;;;19.75;7.10;;;13.90;99.90;;;;;;5031758;28;20076;-61
2023/11/24 09:43:50;;;;;;;16.70;7.28;;;13.90;99.90;;;;;;5030935;28;20061;-62
2023/11/24 09:46:17;;;;;;;28.55;7.65;;;13.80;99.90;;;;;;5031772;28;20085;-61
2023/11/24 09:48:45;;;;;;;23.52;7.95;;;13.80;99.90;;;;;;5030009;28;20062;-65
2023/11/24 09:51:18;;;;;;;28.85;8.48;;;13.90;99.90;;;;;;5030173;28;20537;-61
2023/11/24 09:53:45;;;;;;;19.38;8.30;;;13.80;99.90;;;;;;5033972;28;20057;-65
2023/11/24 09:56:12;;;;;;;28.30;10.57;;;13.70;99.90;;;;;;5033691;28;20132;-62
2023/11/24 09:58:38;;;;;;;25.80;11.85;;;13.70;99.90;;;;;;5031437;28;20116;-62
2023/11/24 10:01:13;;;;;;;30.30;12.25;;;13.70;99.90;;;;;;5034108;28;20483;-61
2023/11/24 10:03:42;;;;;;;22.38;11.60;;;13.70;99.90;;;;;;5032817;28;20072;-61
2023/11/24 10:06:11;;;;;;;35.88;13.90;;;13.70;99.90;;;;;;5032028;28;20065;-63
2023/11/24 10:08:38;;;;;;;28.20;13.00;;;13.60;99.90;;;;;;5035759;28;20058;-61
2023/11/24 10:11:13;;;;;;;31.52;12.27;;;13.60;99.90;;;;;;5033216;28;20144;-62
2023/11/24 10:13:44;;;;;;;26.33;13.07;;;13.60;99.90;;;;;;5030129;28;20068;-62
2023/11/24 10:16:11;;;;;;;36.33;17.98;;;13.60;99.90;;;;;;5034117;28;20140;-61
2023/11/24 10:18:41;;;;;;;41.40;21.65;;;13.60;99.90;;;;;;5031807;28;20090;-62
2023/11/24 10:21:09;;;;;;;57.92;27.13;;;13.60;99.90;;;;;;5031355;28;20076;-62
2023/11/24 10:23:36;;;;;;;50.33;28.05;;;13.60;99.90;;;;;;5032719;28;20114;-61
2023/11/24 10:26:08;;;;;;;63.45;31.63;;;13.50;99.90;;;;;;5032043;28;20056;-64
2023/11/24 10:28:35;;;;;;;59.50;33.38;;;13.50;99.90;;;;;;5033023;28;20066;-62
2023/11/24 10:31:04;;;;;;;75.70;37.72;;;13.50;99.90;;;;;;5031271;28;20477;-62
2023/11/24 10:33:32;;;;;;;70.05;37.78;;;13.50;99.90;;;;;;5034916;28;20064;-63
2023/11/24 10:35:59;;;;;;;82.82;37.70;;;13.40;99.90;;;;;;5032566;28;20092;-63
2023/11/24 10:38:33;;;;;;;78.60;37.30;;;13.30;99.90;;;;;;5037336;28;20065;-63
2023/11/24 10:41:01;;;;;;;88.30;40.92;;;13.30;99.90;;;;;;5031713;28;20118;-62
2023/11/24 10:43:31;;;;;;;75.60;39.75;;;13.40;99.90;;;;;;5030159;28;20125;-62
2023/11/24 10:46:02;;;;;;;85.78;41.25;;;13.30;99.90;;;;;;5033627;28;20145;-64
2023/11/24 10:48:47;;;;;;;93.03;40.45;;;13.40;99.90;;;;;;5030160;28;20056;-62
2023/11/24 10:51:35;;;;;;;91.50;42.15;;;13.30;99.90;;;;;;5032002;28;20061;-60
2023/11/24 10:54:04;;;;;;;90.70;43.97;;;13.40;99.90;;;;;;5032063;28;20069;-60
2023/11/24 10:56:31;;;;;;;100.03;48.83;;;13.50;99.90;;;;;;5030992;28;20083;-61
2023/11/24 10:59:00;;;;;;;103.13;44.97;;;13.60;99.90;;;;;;5030484;28;20064;-60
2023/11/24 11:01:27;;;;;;;90.82;43.83;;;13.70;99.90;;;;;;5031366;28;20111;-60
2023/11/24 11:03:55;;;;;;;84.65;41.65;;;13.80;99.90;;;;;;5034232;28;20068;-60
2023/11/24 11:06:41;;;;;;;104.85;44.58;;;14.00;99.90;;;;;;5033563;28;20059;-60
2023/11/24 11:12:29;;;;;;;93.93;47.85;;;14.10;99.90;;;;;;5032214;28;20069;-61
2023/11/24 11:14:59;;;;;;;104.05;50.13;;;14.30;99.90;;;;;;5027492;28;20123;-60
2023/11/24 11:17:26;;;;;;;95.68;48.60;;;14.40;99.90;;;;;;5030740;28;20054;-61
2023/11/24 11:20:00;;;;;;;85.13;45.55;;;14.30;99.90;;;;;;5029493;28;20134;-61
2023/11/24 11:22:33;;;;;;;92.45;46.05;;;14.30;99.90;;;;;;5030240;28;20091;-62
2023/11/24 11:25:27;;;;;;;97.68;47.75;;;14.40;99.90;;;;;;5028772;28;20078;-61
2023/11/24 11:27:57;;;;;;;91.00;45.55;;;14.30;99.90;;;;;;5032588;28;20532;-60
2023/11/24 11:30:27;;;;;;;86.82;44.80;;;14.20;99.90;;;;;;5032671;28;20117;-62
2023/11/24 11:33:14;;;;;;;84.55;42.78;;;14.30;99.90;;;;;;5032049;28;20103;-61
2023/11/24 11:35:48;;;;;;;87.90;40.33;;;14.40;99.90;;;;;;5031000;28;20060;-62
2023/11/24 11:38:36;;;;;;;92.60;41.30;;;14.20;99.90;;;;;;5034775;28;20116;-59
2023/11/24 11:41:05;;;;;;;93.60;39.03;;;14.20;99.90;;;;;;5031024;28;20488;-60
2023/11/24 11:43:32;;;;;;;95.13;41.90;;;14.20;99.90;;;;;;5031780;28;20072;-61
2023/11/24 11:46:03;;;;;;;80.00;44.75;;;14.10;99.90;;;;;;5032806;28;20614;-60
2023/11/24 11:48:38;;;;;;;83.85;43.75;;;14.00;99.90;;;;;;5034663;28;20093;-61
2023/11/24 11:51:05;;;;;;;83.38;43.67;;;13.90;99.90;;;;;;5034702;28;20067;-60
2023/11/24 11:53:34;;;;;;;77.95;43.65;;;13.80;99.90;;;;;;5034278;28;20064;-60
2023/11/24 11:56:06;;;;;;;78.60;43.63;;;13.80;99.90;;;;;;5037866;28;20093;-62
2023/11/24 11:58:34;;;;;;;89.32;44.38;;;13.90;99.90;;;;;;5036231;28;20156;-61
2023/11/24 12:01:07;;;;;;;91.22;42.67;;;13.90;99.90;;;;;;5034921;28;20103;-59
2023/11/24 12:03:34;;;;;;;107.50;48.58;;;13.80;99.90;;;;;;5035398;28;20068;-60
2023/11/24 12:06:05;;;;;;;101.65;47.72;;;13.70;99.90;;;;;;5032290;28;20069;-60
2023/11/24 12:08:43;;;;;;;77.93;44.05;;;13.60;99.90;;;;;;5034369;28;20074;-60
2023/11/24 12:11:13;;;;;;;98.97;58.08;;;13.60;99.90;;;;;;5035959;28;20093;-60
2023/11/24 12:13:39;;;;;;;75.38;43.90;;;13.60;99.90;;;;;;5033340;28;20064;-59
2023/11/24 12:16:06;;;;;;;74.63;42.42;;;13.60;99.90;;;;;;5036478;28;20124;-59
2023/11/24 12:18:33;;;;;;;68.85;40.42;;;13.60;99.90;;;;;;5036018;28;20121;-60
2023/11/24 12:20:59;;;;;;;70.63;39.03;;;13.60;99.90;;;;;;5034379;28;20083;-60
2023/11/24 12:23:26;;;;;;;81.18;38.90;;;13.60;99.90;;;;;;5033283;28;20068;-59
2023/11/24 12:25:54;;;;;;;65.63;35.72;;;13.70;99.90;;;;;;5036123;28;20086;-59
2023/11/24 12:28:21;;;;;;;70.85;35.35;;;13.70;99.90;;;;;;5034740;28;20063;-64
2023/11/24 12:30:48;;;;;;;69.22;37.90;;;13.80;99.90;;;;;;5037008;28;20052;-61
2023/11/24 12:33:19;;;;;;;61.92;36.80;;;13.80;99.90;;;;;;5037448;28;20134;-61
2023/11/24 12:35:49;;;;;;;64.13;31.60;;;13.70;99.90;;;;;;5035396;28;20059;-60